sensor_id;sensor_type;location;lat;lon;timestamp;P1;durP1;ratioP1;P2;durP2;ratioP2
84474;SDS011;74699;43.068;0.152;2024-02-04T00:01:31;21.27;;;11.90;;
84474;SDS011;74699;43.068;0.152;2024-02-04T00:03:57;19.67;;;11.93;;
84474;SDS011;74699;43.068;0.152;2024-02-04T00:06:23;18.83;;;11.35;;
84474;SDS011;74699;43.068;0.152;2024-02-04T00:08:49;16.48;;;11.13;;
84474;SDS011;74699;43.068;0.152;2024-02-04T00:11:15;18.05;;;11.90;;
84474;SDS011;74699;43.068;0.152;2024-02-04T00:13:41;16.30;;;9.10;;
84474;SDS011;74699;43.068;0.152;2024-02-04T00:16:07;17.27;;;10.85;;
84474;SDS011;74699;43.068;0.152;2024-02-04T00:18:33;16.85;;;10.63;;
84474;SDS011;74699;43.068;0.152;2024-02-04T00:20:59;18.58;;;11.95;;
84474;SDS011;74699;43.068;0.152;2024-02-04T00:23:25;19.58;;;12.05;;
84474;SDS011;74699;43.068;0.152;2024-02-04T00:25:51;19.35;;;12.48;;
84474;SDS011;74699;43.068;0.152;2024-02-04T00:28:17;19.73;;;11.77;;
84474;SDS011;74699;43.068;0.152;2024-02-04T00:30:45;19.02;;;11.40;;
84474;SDS011;74699;43.068;0.152;2024-02-04T00:33:11;18.15;;;11.10;;
84474;SDS011;74699;43.068;0.152;2024-02-04T00:35:37;20.13;;;10.82;;
84474;SDS011;74699;43.068;0.152;2024-02-04T00:38:03;18.70;;;10.82;;
84474;SDS011;74699;43.068;0.152;2024-02-04T00:40:30;19.45;;;10.35;;
84474;SDS011;74699;43.068;0.152;2024-02-04T00:42:56;19.42;;;11.95;;
84474;SDS011;74699;43.068;0.152;2024-02-04T00:45:22;17.80;;;10.20;;
84474;SDS011;74699;43.068;0.152;2024-02-04T00:47:48;17.08;;;10.82;;
84474;SDS011;74699;43.068;0.152;2024-02-04T00:50:15;14.15;;;8.52;;
84474;SDS011;74699;43.068;0.152;2024-02-04T00:52:41;14.98;;;9.30;;
84474;SDS011;74699;43.068;0.152;2024-02-04T00:55:07;13.35;;;8.80;;
84474;SDS011;74699;43.068;0.152;2024-02-04T00:57:33;17.92;;;9.82;;
84474;SDS011;74699;43.068;0.152;2024-02-04T00:59:59;15.15;;;9.43;;
84474;SDS011;74699;43.068;0.152;2024-02-04T01:02:25;16.27;;;9.85;;
84474;SDS011;74699;43.068;0.152;2024-02-04T01:04:51;15.63;;;9.55;;
84474;SDS011;74699;43.068;0.152;2024-02-04T01:07:17;15.35;;;8.52;;
84474;SDS011;74699;43.068;0.152;2024-02-04T01:09:43;16.60;;;9.25;;
84474;SDS011;74699;43.068;0.152;2024-02-04T01:12:09;14.50;;;7.43;;
84474;SDS011;74699;43.068;0.152;2024-02-04T01:14:35;15.52;;;9.63;;
84474;SDS011;74699;43.068;0.152;2024-02-04T01:17:01;18.67;;;10.80;;
84474;SDS011;74699;43.068;0.152;2024-02-04T01:19:27;16.27;;;9.13;;
84474;SDS011;74699;43.068;0.152;2024-02-04T01:21:53;13.13;;;8.02;;
84474;SDS011;74699;43.068;0.152;2024-02-04T01:24:19;14.35;;;7.65;;
84474;SDS011;74699;43.068;0.152;2024-02-04T01:26:45;13.73;;;8.98;;
84474;SDS011;74699;43.068;0.152;2024-02-04T01:29:11;19.50;;;9.98;;
84474;SDS011;74699;43.068;0.152;2024-02-04T01:31:37;19.40;;;10.85;;
84474;SDS011;74699;43.068;0.152;2024-02-04T01:34:03;18.60;;;9.88;;
84474;SDS011;74699;43.068;0.152;2024-02-04T01:36:29;17.25;;;9.75;;
84474;SDS011;74699;43.068;0.152;2024-02-04T01:38:55;15.18;;;9.70;;
84474;SDS011;74699;43.068;0.152;2024-02-04T01:41:22;16.27;;;9.57;;
84474;SDS011;74699;43.068;0.152;2024-02-04T01:46:16;20.30;;;11.25;;
84474;SDS011;74699;43.068;0.152;2024-02-04T01:48:42;19.45;;;10.05;;
84474;SDS011;74699;43.068;0.152;2024-02-04T01:51:08;17.55;;;10.88;;
84474;SDS011;74699;43.068;0.152;2024-02-04T01:53:35;17.10;;;10.88;;
84474;SDS011;74699;43.068;0.152;2024-02-04T01:56:02;17.55;;;11.50;;
84474;SDS011;74699;43.068;0.152;2024-02-04T01:58:28;17.67;;;11.50;;
84474;SDS011;74699;43.068;0.152;2024-02-04T02:00:54;19.95;;;10.95;;
84474;SDS011;74699;43.068;0.152;2024-02-04T02:03:20;18.23;;;10.25;;
84474;SDS011;74699;43.068;0.152;2024-02-04T02:05:48;18.63;;;10.25;;
84474;SDS011;74699;43.068;0.152;2024-02-04T02:08:14;16.52;;;9.32;;
84474;SDS011;74699;43.068;0.152;2024-02-04T02:10:41;18.67;;;10.50;;
84474;SDS011;74699;43.068;0.152;2024-02-04T02:13:14;17.85;;;10.18;;
84474;SDS011;74699;43.068;0.152;2024-02-04T02:15:43;17.77;;;11.00;;
84474;SDS011;74699;43.068;0.152;2024-02-04T02:18:14;17.67;;;9.90;;
84474;SDS011;74699;43.068;0.152;2024-02-04T02:20:47;16.48;;;9.43;;
84474;SDS011;74699;43.068;0.152;2024-02-04T02:23:22;18.85;;;11.32;;
84474;SDS011;74699;43.068;0.152;2024-02-04T02:25:49;16.95;;;10.15;;
84474;SDS011;74699;43.068;0.152;2024-02-04T02:28:15;16.02;;;10.10;;
84474;SDS011;74699;43.068;0.152;2024-02-04T02:30:41;16.38;;;9.68;;
84474;SDS011;74699;43.068;0.152;2024-02-04T02:33:07;17.27;;;9.48;;
84474;SDS011;74699;43.068;0.152;2024-02-04T02:35:34;15.70;;;9.23;;
84474;SDS011;74699;43.068;0.152;2024-02-04T02:40:46;14.52;;;8.43;;
84474;SDS011;74699;43.068;0.152;2024-02-04T02:43:13;13.02;;;7.97;;
84474;SDS011;74699;43.068;0.152;2024-02-04T02:45:41;15.30;;;8.25;;
84474;SDS011;74699;43.068;0.152;2024-02-04T02:50:34;14.50;;;8.57;;
84474;SDS011;74699;43.068;0.152;2024-02-04T02:53:00;15.68;;;9.85;;
84474;SDS011;74699;43.068;0.152;2024-02-04T02:55:26;18.90;;;10.13;;
84474;SDS011;74699;43.068;0.152;2024-02-04T02:57:52;20.98;;;11.57;;
84474;SDS011;74699;43.068;0.152;2024-02-04T03:00:18;16.27;;;9.93;;
84474;SDS011;74699;43.068;0.152;2024-02-04T03:02:44;15.88;;;9.82;;
84474;SDS011;74699;43.068;0.152;2024-02-04T03:05:12;17.73;;;10.25;;
84474;SDS011;74699;43.068;0.152;2024-02-04T03:10:04;14.98;;;8.55;;
84474;SDS011;74699;43.068;0.152;2024-02-04T03:12:30;14.52;;;8.85;;
84474;SDS011;74699;43.068;0.152;2024-02-04T03:14:56;15.98;;;9.02;;
84474;SDS011;74699;43.068;0.152;2024-02-04T03:17:22;19.70;;;9.30;;
84474;SDS011;74699;43.068;0.152;2024-02-04T03:19:49;14.15;;;8.70;;
84474;SDS011;74699;43.068;0.152;2024-02-04T03:24:42;14.45;;;8.48;;
84474;SDS011;74699;43.068;0.152;2024-02-04T03:27:08;15.80;;;8.07;;
84474;SDS011;74699;43.068;0.152;2024-02-04T03:29:35;16.60;;;8.73;;
84474;SDS011;74699;43.068;0.152;2024-02-04T03:32:01;14.35;;;8.40;;
84474;SDS011;74699;43.068;0.152;2024-02-04T03:34:27;13.98;;;8.02;;
84474;SDS011;74699;43.068;0.152;2024-02-04T03:36:53;14.75;;;9.02;;
84474;SDS011;74699;43.068;0.152;2024-02-04T03:39:20;13.95;;;8.05;;
84474;SDS011;74699;43.068;0.152;2024-02-04T03:41:46;15.73;;;8.75;;
84474;SDS011;74699;43.068;0.152;2024-02-04T03:44:12;13.35;;;8.70;;
84474;SDS011;74699;43.068;0.152;2024-02-04T03:46:38;13.32;;;8.18;;
84474;SDS011;74699;43.068;0.152;2024-02-04T03:49:06;15.25;;;9.30;;
84474;SDS011;74699;43.068;0.152;2024-02-04T03:51:32;16.17;;;9.80;;
84474;SDS011;74699;43.068;0.152;2024-02-04T03:53:58;13.90;;;8.77;;
84474;SDS011;74699;43.068;0.152;2024-02-04T03:56:24;16.15;;;9.48;;
84474;SDS011;74699;43.068;0.152;2024-02-04T03:58:50;15.23;;;8.85;;
84474;SDS011;74699;43.068;0.152;2024-02-04T04:01:16;17.45;;;9.57;;
84474;SDS011;74699;43.068;0.152;2024-02-04T04:03:42;15.35;;;8.90;;
84474;SDS011;74699;43.068;0.152;2024-02-04T04:06:09;15.45;;;8.80;;
84474;SDS011;74699;43.068;0.152;2024-02-04T04:08:35;15.75;;;8.88;;
84474;SDS011;74699;43.068;0.152;2024-02-04T04:11:01;16.25;;;9.60;;
84474;SDS011;74699;43.068;0.152;2024-02-04T04:13:27;14.50;;;8.13;;
84474;SDS011;74699;43.068;0.152;2024-02-04T04:15:53;16.63;;;9.48;;
84474;SDS011;74699;43.068;0.152;2024-02-04T04:18:19;14.23;;;9.15;;
84474;SDS011;74699;43.068;0.152;2024-02-04T04:20:45;15.27;;;9.05;;
84474;SDS011;74699;43.068;0.152;2024-02-04T04:23:14;14.60;;;9.05;;
84474;SDS011;74699;43.068;0.152;2024-02-04T04:25:40;17.35;;;8.68;;
84474;SDS011;74699;43.068;0.152;2024-02-04T04:28:06;15.77;;;9.77;;
84474;SDS011;74699;43.068;0.152;2024-02-04T04:30:32;15.68;;;9.00;;
84474;SDS011;74699;43.068;0.152;2024-02-04T04:32:58;15.82;;;9.35;;
84474;SDS011;74699;43.068;0.152;2024-02-04T04:35:24;15.82;;;9.45;;
84474;SDS011;74699;43.068;0.152;2024-02-04T04:37:51;16.75;;;10.00;;
84474;SDS011;74699;43.068;0.152;2024-02-04T04:40:18;15.30;;;9.38;;
84474;SDS011;74699;43.068;0.152;2024-02-04T04:42:44;15.52;;;9.00;;
84474;SDS011;74699;43.068;0.152;2024-02-04T04:45:10;13.45;;;8.55;;
84474;SDS011;74699;43.068;0.152;2024-02-04T04:47:36;18.10;;;9.48;;
84474;SDS011;74699;43.068;0.152;2024-02-04T04:50:02;14.43;;;9.43;;
84474;SDS011;74699;43.068;0.152;2024-02-04T04:52:29;17.33;;;8.93;;
84474;SDS011;74699;43.068;0.152;2024-02-04T04:54:55;12.90;;;8.32;;
84474;SDS011;74699;43.068;0.152;2024-02-04T04:57:21;14.55;;;8.40;;
84474;SDS011;74699;43.068;0.152;2024-02-04T04:59:47;13.85;;;8.93;;
84474;SDS011;74699;43.068;0.152;2024-02-04T05:02:13;13.63;;;7.68;;
84474;SDS011;74699;43.068;0.152;2024-02-04T05:04:42;16.80;;;9.15;;
84474;SDS011;74699;43.068;0.152;2024-02-04T05:07:09;15.57;;;9.38;;
84474;SDS011;74699;43.068;0.152;2024-02-04T05:09:35;13.63;;;8.38;;
84474;SDS011;74699;43.068;0.152;2024-02-04T05:12:02;15.02;;;8.25;;
84474;SDS011;74699;43.068;0.152;2024-02-04T05:14:28;14.15;;;8.80;;
84474;SDS011;74699;43.068;0.152;2024-02-04T05:16:54;15.45;;;9.05;;
84474;SDS011;74699;43.068;0.152;2024-02-04T05:19:20;13.27;;;8.30;;
84474;SDS011;74699;43.068;0.152;2024-02-04T05:21:46;13.18;;;8.10;;
84474;SDS011;74699;43.068;0.152;2024-02-04T05:24:12;14.77;;;8.48;;
84474;SDS011;74699;43.068;0.152;2024-02-04T05:26:38;16.40;;;7.90;;
84474;SDS011;74699;43.068;0.152;2024-02-04T05:29:05;14.52;;;8.15;;
84474;SDS011;74699;43.068;0.152;2024-02-04T05:31:31;12.98;;;7.28;;
84474;SDS011;74699;43.068;0.152;2024-02-04T05:33:57;15.65;;;9.02;;
84474;SDS011;74699;43.068;0.152;2024-02-04T05:36:23;14.50;;;8.27;;
84474;SDS011;74699;43.068;0.152;2024-02-04T05:38:49;15.73;;;8.23;;
84474;SDS011;74699;43.068;0.152;2024-02-04T05:41:15;16.13;;;9.18;;
84474;SDS011;74699;43.068;0.152;2024-02-04T05:43:41;14.05;;;8.98;;
84474;SDS011;74699;43.068;0.152;2024-02-04T05:46:07;13.15;;;7.32;;
84474;SDS011;74699;43.068;0.152;2024-02-04T05:48:33;13.73;;;8.07;;
84474;SDS011;74699;43.068;0.152;2024-02-04T05:50:59;14.07;;;8.25;;
84474;SDS011;74699;43.068;0.152;2024-02-04T05:53:25;17.23;;;8.98;;
84474;SDS011;74699;43.068;0.152;2024-02-04T05:55:51;13.98;;;8.00;;
84474;SDS011;74699;43.068;0.152;2024-02-04T05:58:17;14.13;;;8.55;;
84474;SDS011;74699;43.068;0.152;2024-02-04T06:00:43;12.60;;;7.50;;
84474;SDS011;74699;43.068;0.152;2024-02-04T06:03:09;13.18;;;7.60;;
84474;SDS011;74699;43.068;0.152;2024-02-04T06:05:36;14.80;;;7.97;;
84474;SDS011;74699;43.068;0.152;2024-02-04T06:08:02;14.35;;;8.05;;
84474;SDS011;74699;43.068;0.152;2024-02-04T06:10:28;14.27;;;7.57;;
84474;SDS011;74699;43.068;0.152;2024-02-04T06:12:54;13.82;;;8.13;;
84474;SDS011;74699;43.068;0.152;2024-02-04T06:15:20;14.15;;;8.20;;
84474;SDS011;74699;43.068;0.152;2024-02-04T06:17:46;13.13;;;7.60;;
84474;SDS011;74699;43.068;0.152;2024-02-04T06:20:12;11.65;;;6.68;;
84474;SDS011;74699;43.068;0.152;2024-02-04T06:22:38;11.02;;;6.90;;
84474;SDS011;74699;43.068;0.152;2024-02-04T06:25:04;11.15;;;7.20;;
84474;SDS011;74699;43.068;0.152;2024-02-04T06:27:30;13.30;;;7.00;;
84474;SDS011;74699;43.068;0.152;2024-02-04T06:29:56;13.63;;;7.70;;
84474;SDS011;74699;43.068;0.152;2024-02-04T06:32:23;12.30;;;7.38;;
84474;SDS011;74699;43.068;0.152;2024-02-04T06:34:49;14.07;;;7.82;;
84474;SDS011;74699;43.068;0.152;2024-02-04T06:37:16;12.32;;;7.93;;
84474;SDS011;74699;43.068;0.152;2024-02-04T06:39:42;14.00;;;8.68;;
84474;SDS011;74699;43.068;0.152;2024-02-04T06:42:08;14.27;;;8.48;;
84474;SDS011;74699;43.068;0.152;2024-02-04T06:44:34;14.43;;;7.95;;
84474;SDS011;74699;43.068;0.152;2024-02-04T06:47:00;13.30;;;8.27;;
84474;SDS011;74699;43.068;0.152;2024-02-04T06:49:26;12.48;;;7.97;;
84474;SDS011;74699;43.068;0.152;2024-02-04T06:51:52;13.27;;;8.05;;
84474;SDS011;74699;43.068;0.152;2024-02-04T06:54:22;15.43;;;8.75;;
84474;SDS011;74699;43.068;0.152;2024-02-04T06:56:48;14.55;;;8.70;;
84474;SDS011;74699;43.068;0.152;2024-02-04T06:59:14;15.15;;;7.78;;
84474;SDS011;74699;43.068;0.152;2024-02-04T07:01:40;14.55;;;7.82;;
84474;SDS011;74699;43.068;0.152;2024-02-04T07:04:06;13.27;;;7.50;;
84474;SDS011;74699;43.068;0.152;2024-02-04T07:06:32;12.73;;;6.70;;
84474;SDS011;74699;43.068;0.152;2024-02-04T07:08:58;12.10;;;7.63;;
84474;SDS011;74699;43.068;0.152;2024-02-04T07:11:24;12.35;;;7.70;;
84474;SDS011;74699;43.068;0.152;2024-02-04T07:13:50;11.23;;;6.95;;
84474;SDS011;74699;43.068;0.152;2024-02-04T07:16:23;13.30;;;7.53;;
84474;SDS011;74699;43.068;0.152;2024-02-04T07:18:49;15.32;;;8.05;;
84474;SDS011;74699;43.068;0.152;2024-02-04T07:21:15;12.60;;;7.82;;
84474;SDS011;74699;43.068;0.152;2024-02-04T07:23:41;14.40;;;8.38;;
84474;SDS011;74699;43.068;0.152;2024-02-04T07:26:07;12.80;;;8.35;;
84474;SDS011;74699;43.068;0.152;2024-02-04T07:28:33;14.80;;;8.27;;
84474;SDS011;74699;43.068;0.152;2024-02-04T07:30:59;13.98;;;7.43;;
84474;SDS011;74699;43.068;0.152;2024-02-04T07:33:26;13.93;;;7.10;;
84474;SDS011;74699;43.068;0.152;2024-02-04T07:35:52;14.20;;;8.13;;
84474;SDS011;74699;43.068;0.152;2024-02-04T07:38:18;15.43;;;8.23;;
84474;SDS011;74699;43.068;0.152;2024-02-04T07:40:44;11.85;;;6.72;;
84474;SDS011;74699;43.068;0.152;2024-02-04T07:43:10;11.77;;;7.60;;
84474;SDS011;74699;43.068;0.152;2024-02-04T07:45:36;14.70;;;8.25;;
84474;SDS011;74699;43.068;0.152;2024-02-04T07:48:03;13.02;;;7.65;;
84474;SDS011;74699;43.068;0.152;2024-02-04T07:50:29;12.07;;;7.35;;
84474;SDS011;74699;43.068;0.152;2024-02-04T07:52:55;13.90;;;7.13;;
84474;SDS011;74699;43.068;0.152;2024-02-04T07:55:21;11.43;;;7.05;;
84474;SDS011;74699;43.068;0.152;2024-02-04T07:57:47;12.68;;;7.07;;
84474;SDS011;74699;43.068;0.152;2024-02-04T08:00:13;12.55;;;7.40;;
84474;SDS011;74699;43.068;0.152;2024-02-04T08:02:39;13.75;;;7.18;;
84474;SDS011;74699;43.068;0.152;2024-02-04T08:05:05;12.68;;;7.40;;
84474;SDS011;74699;43.068;0.152;2024-02-04T08:07:31;10.45;;;6.72;;
84474;SDS011;74699;43.068;0.152;2024-02-04T08:09:58;14.95;;;8.48;;
84474;SDS011;74699;43.068;0.152;2024-02-04T08:12:24;13.13;;;7.47;;
84474;SDS011;74699;43.068;0.152;2024-02-04T08:14:50;13.32;;;8.45;;
84474;SDS011;74699;43.068;0.152;2024-02-04T08:17:16;16.63;;;8.00;;
84474;SDS011;74699;43.068;0.152;2024-02-04T08:19:42;13.32;;;7.93;;
84474;SDS011;74699;43.068;0.152;2024-02-04T08:22:08;12.48;;;7.95;;
84474;SDS011;74699;43.068;0.152;2024-02-04T08:24:34;13.10;;;7.93;;
84474;SDS011;74699;43.068;0.152;2024-02-04T08:27:01;13.05;;;8.75;;
84474;SDS011;74699;43.068;0.152;2024-02-04T08:29:28;13.80;;;8.80;;
84474;SDS011;74699;43.068;0.152;2024-02-04T08:31:54;14.50;;;8.52;;
84474;SDS011;74699;43.068;0.152;2024-02-04T08:34:20;13.95;;;8.98;;
84474;SDS011;74699;43.068;0.152;2024-02-04T08:36:49;13.95;;;8.70;;
84474;SDS011;74699;43.068;0.152;2024-02-04T08:39:15;14.75;;;8.90;;
84474;SDS011;74699;43.068;0.152;2024-02-04T08:41:41;15.73;;;9.20;;
84474;SDS011;74699;43.068;0.152;2024-02-04T08:44:07;14.60;;;9.25;;
84474;SDS011;74699;43.068;0.152;2024-02-04T08:46:33;13.40;;;8.93;;
84474;SDS011;74699;43.068;0.152;2024-02-04T08:49:00;12.88;;;8.15;;
84474;SDS011;74699;43.068;0.152;2024-02-04T08:51:26;11.75;;;8.35;;
84474;SDS011;74699;43.068;0.152;2024-02-04T08:53:52;14.02;;;8.55;;
84474;SDS011;74699;43.068;0.152;2024-02-04T08:56:18;13.18;;;8.15;;
84474;SDS011;74699;43.068;0.152;2024-02-04T08:58:45;12.30;;;8.18;;
84474;SDS011;74699;43.068;0.152;2024-02-04T09:01:11;12.38;;;8.90;;
84474;SDS011;74699;43.068;0.152;2024-02-04T09:03:37;13.13;;;8.00;;
84474;SDS011;74699;43.068;0.152;2024-02-04T09:06:03;11.05;;;8.30;;
84474;SDS011;74699;43.068;0.152;2024-02-04T09:08:29;11.32;;;7.88;;
84474;SDS011;74699;43.068;0.152;2024-02-04T09:10:55;11.80;;;8.02;;
84474;SDS011;74699;43.068;0.152;2024-02-04T09:13:22;12.02;;;8.90;;
84474;SDS011;74699;43.068;0.152;2024-02-04T09:15:49;13.15;;;9.88;;
84474;SDS011;74699;43.068;0.152;2024-02-04T09:18:15;13.25;;;9.57;;
84474;SDS011;74699;43.068;0.152;2024-02-04T09:20:41;12.85;;;9.63;;
84474;SDS011;74699;43.068;0.152;2024-02-04T09:23:07;12.50;;;10.02;;
84474;SDS011;74699;43.068;0.152;2024-02-04T09:25:33;13.02;;;10.10;;
84474;SDS011;74699;43.068;0.152;2024-02-04T09:27:59;14.07;;;10.65;;
84474;SDS011;74699;43.068;0.152;2024-02-04T09:30:25;12.68;;;10.23;;
84474;SDS011;74699;43.068;0.152;2024-02-04T09:32:51;13.57;;;9.68;;
84474;SDS011;74699;43.068;0.152;2024-02-04T09:35:17;11.98;;;9.30;;
84474;SDS011;74699;43.068;0.152;2024-02-04T09:37:44;11.07;;;9.23;;
84474;SDS011;74699;43.068;0.152;2024-02-04T09:40:10;10.45;;;8.05;;
84474;SDS011;74699;43.068;0.152;2024-02-04T09:42:37;9.45;;;7.43;;
84474;SDS011;74699;43.068;0.152;2024-02-04T09:45:03;9.60;;;7.70;;
84474;SDS011;74699;43.068;0.152;2024-02-04T09:47:29;9.98;;;6.70;;
84474;SDS011;74699;43.068;0.152;2024-02-04T09:49:56;9.13;;;7.43;;
84474;SDS011;74699;43.068;0.152;2024-02-04T09:52:25;10.07;;;7.22;;
84474;SDS011;74699;43.068;0.152;2024-02-04T09:54:56;8.52;;;6.90;;
84474;SDS011;74699;43.068;0.152;2024-02-04T09:57:23;9.82;;;7.38;;
84474;SDS011;74699;43.068;0.152;2024-02-04T09:59:49;8.90;;;7.18;;
84474;SDS011;74699;43.068;0.152;2024-02-04T10:02:15;9.85;;;7.18;;
84474;SDS011;74699;43.068;0.152;2024-02-04T10:04:41;8.45;;;6.75;;
84474;SDS011;74699;43.068;0.152;2024-02-04T10:07:07;10.05;;;7.43;;
84474;SDS011;74699;43.068;0.152;2024-02-04T10:09:33;9.88;;;7.18;;
84474;SDS011;74699;43.068;0.152;2024-02-04T10:11:59;9.85;;;7.53;;
84474;SDS011;74699;43.068;0.152;2024-02-04T10:14:25;9.75;;;7.10;;
84474;SDS011;74699;43.068;0.152;2024-02-04T10:16:51;9.73;;;6.88;;
84474;SDS011;74699;43.068;0.152;2024-02-04T10:21:44;9.77;;;7.43;;
84474;SDS011;74699;43.068;0.152;2024-02-04T10:24:10;9.80;;;7.72;;
84474;SDS011;74699;43.068;0.152;2024-02-04T10:26:36;9.13;;;7.28;;
84474;SDS011;74699;43.068;0.152;2024-02-04T10:29:03;10.13;;;7.95;;
84474;SDS011;74699;43.068;0.152;2024-02-04T10:31:29;10.18;;;8.60;;
84474;SDS011;74699;43.068;0.152;2024-02-04T10:33:55;10.80;;;8.15;;
84474;SDS011;74699;43.068;0.152;2024-02-04T10:36:22;9.38;;;8.25;;
84474;SDS011;74699;43.068;0.152;2024-02-04T10:38:48;10.93;;;7.70;;
84474;SDS011;74699;43.068;0.152;2024-02-04T10:41:14;9.13;;;7.53;;
84474;SDS011;74699;43.068;0.152;2024-02-04T10:43:42;9.85;;;7.80;;
84474;SDS011;74699;43.068;0.152;2024-02-04T10:46:29;9.95;;;8.48;;
84474;SDS011;74699;43.068;0.152;2024-02-04T10:48:57;9.32;;;7.38;;
84474;SDS011;74699;43.068;0.152;2024-02-04T10:51:25;9.85;;;8.07;;
84474;SDS011;74699;43.068;0.152;2024-02-04T10:53:53;9.77;;;7.60;;
84474;SDS011;74699;43.068;0.152;2024-02-04T10:56:29;9.60;;;7.53;;
84474;SDS011;74699;43.068;0.152;2024-02-04T10:58:56;9.75;;;7.75;;
84474;SDS011;74699;43.068;0.152;2024-02-04T11:01:25;8.20;;;7.35;;
84474;SDS011;74699;43.068;0.152;2024-02-04T11:03:51;9.20;;;7.03;;
84474;SDS011;74699;43.068;0.152;2024-02-04T11:06:19;8.75;;;7.28;;
84474;SDS011;74699;43.068;0.152;2024-02-04T11:08:46;8.13;;;7.07;;
84474;SDS011;74699;43.068;0.152;2024-02-04T11:11:12;7.63;;;6.65;;
84474;SDS011;74699;43.068;0.152;2024-02-04T11:13:39;9.30;;;7.88;;
84474;SDS011;74699;43.068;0.152;2024-02-04T11:16:07;8.57;;;7.18;;
84474;SDS011;74699;43.068;0.152;2024-02-04T11:21:07;9.23;;;6.90;;
84474;SDS011;74699;43.068;0.152;2024-02-04T11:26:09;8.35;;;6.72;;
84474;SDS011;74699;43.068;0.152;2024-02-04T11:28:36;7.28;;;5.72;;
84474;SDS011;74699;43.068;0.152;2024-02-04T11:31:04;6.93;;;5.55;;
84474;SDS011;74699;43.068;0.152;2024-02-04T11:33:30;8.48;;;6.43;;
84474;SDS011;74699;43.068;0.152;2024-02-04T11:36:06;8.60;;;6.28;;
84474;SDS011;74699;43.068;0.152;2024-02-04T11:38:35;7.45;;;5.95;;
84474;SDS011;74699;43.068;0.152;2024-02-04T11:41:05;6.97;;;5.68;;
84474;SDS011;74699;43.068;0.152;2024-02-04T11:43:34;5.93;;;4.75;;
84474;SDS011;74699;43.068;0.152;2024-02-04T11:46:02;6.93;;;5.38;;
84474;SDS011;74699;43.068;0.152;2024-02-04T11:48:32;7.18;;;5.45;;
84474;SDS011;74699;43.068;0.152;2024-02-04T11:50:59;6.45;;;5.30;;
84474;SDS011;74699;43.068;0.152;2024-02-04T11:53:28;8.10;;;5.95;;
84474;SDS011;74699;43.068;0.152;2024-02-04T11:55:57;6.50;;;4.85;;
84474;SDS011;74699;43.068;0.152;2024-02-04T11:58:25;7.32;;;5.22;;
84474;SDS011;74699;43.068;0.152;2024-02-04T12:03:27;6.93;;;5.90;;
84474;SDS011;74699;43.068;0.152;2024-02-04T12:05:54;7.90;;;5.72;;
84474;SDS011;74699;43.068;0.152;2024-02-04T12:08:20;6.63;;;5.20;;
84474;SDS011;74699;43.068;0.152;2024-02-04T12:10:46;6.47;;;4.68;;
84474;SDS011;74699;43.068;0.152;2024-02-04T12:13:13;6.07;;;5.20;;
84474;SDS011;74699;43.068;0.152;2024-02-04T12:15:39;6.38;;;4.75;;
84474;SDS011;74699;43.068;0.152;2024-02-04T12:18:06;5.85;;;4.60;;
84474;SDS011;74699;43.068;0.152;2024-02-04T12:20:32;7.07;;;5.30;;
84474;SDS011;74699;43.068;0.152;2024-02-04T12:22:58;6.85;;;5.43;;
84474;SDS011;74699;43.068;0.152;2024-02-04T12:27:52;6.15;;;4.28;;
84474;SDS011;74699;43.068;0.152;2024-02-04T12:32:55;5.10;;;3.50;;
84474;SDS011;74699;43.068;0.152;2024-02-04T12:35:21;5.43;;;3.72;;
84474;SDS011;74699;43.068;0.152;2024-02-04T12:40:20;4.90;;;3.42;;
84474;SDS011;74699;43.068;0.152;2024-02-04T12:42:46;4.75;;;3.67;;
84474;SDS011;74699;43.068;0.152;2024-02-04T12:45:17;4.55;;;3.60;;
84474;SDS011;74699;43.068;0.152;2024-02-04T12:47:43;4.70;;;3.40;;
84474;SDS011;74699;43.068;0.152;2024-02-04T12:52:36;5.03;;;3.58;;
84474;SDS011;74699;43.068;0.152;2024-02-04T12:55:04;5.28;;;3.30;;
84474;SDS011;74699;43.068;0.152;2024-02-04T12:57:31;5.47;;;3.20;;
84474;SDS011;74699;43.068;0.152;2024-02-04T13:00:03;5.82;;;3.33;;
84474;SDS011;74699;43.068;0.152;2024-02-04T13:02:31;11.48;;;10.32;;
84474;SDS011;74699;43.068;0.152;2024-02-04T13:04:59;12.13;;;10.93;;
84474;SDS011;74699;43.068;0.152;2024-02-04T13:07:25;12.65;;;11.43;;
84474;SDS011;74699;43.068;0.152;2024-02-04T13:09:58;13.13;;;11.82;;
84474;SDS011;74699;43.068;0.152;2024-02-04T13:12:27;14.05;;;12.75;;
84474;SDS011;74699;43.068;0.152;2024-02-04T13:14:53;13.85;;;12.55;;
84474;SDS011;74699;43.068;0.152;2024-02-04T13:17:19;13.73;;;12.45;;
84474;SDS011;74699;43.068;0.152;2024-02-04T13:22:12;13.07;;;11.80;;
84474;SDS011;74699;43.068;0.152;2024-02-04T13:24:39;13.15;;;11.95;;
84474;SDS011;74699;43.068;0.152;2024-02-04T13:29:36;12.85;;;11.52;;
84474;SDS011;74699;43.068;0.152;2024-02-04T13:32:02;11.90;;;10.77;;
84474;SDS011;74699;43.068;0.152;2024-02-04T13:34:29;11.63;;;10.40;;
84474;SDS011;74699;43.068;0.152;2024-02-04T13:36:55;10.45;;;9.02;;
84474;SDS011;74699;43.068;0.152;2024-02-04T13:39:21;7.88;;;7.07;;
84474;SDS011;74699;43.068;0.152;2024-02-04T13:44:13;8.57;;;7.65;;
84474;SDS011;74699;43.068;0.152;2024-02-04T13:46:39;7.68;;;6.47;;
84474;SDS011;74699;43.068;0.152;2024-02-04T13:49:07;7.13;;;6.45;;
84474;SDS011;74699;43.068;0.152;2024-02-04T13:51:33;7.20;;;6.40;;
84474;SDS011;74699;43.068;0.152;2024-02-04T13:54:01;7.25;;;6.43;;
84474;SDS011;74699;43.068;0.152;2024-02-04T13:56:27;7.53;;;6.47;;
84474;SDS011;74699;43.068;0.152;2024-02-04T13:58:54;6.88;;;6.18;;
84474;SDS011;74699;43.068;0.152;2024-02-04T14:01:21;7.55;;;5.85;;
84474;SDS011;74699;43.068;0.152;2024-02-04T14:03:47;8.02;;;7.22;;
84474;SDS011;74699;43.068;0.152;2024-02-04T14:06:15;8.60;;;7.10;;
84474;SDS011;74699;43.068;0.152;2024-02-04T14:08:41;7.03;;;6.20;;
84474;SDS011;74699;43.068;0.152;2024-02-04T14:11:07;8.45;;;7.65;;
84474;SDS011;74699;43.068;0.152;2024-02-04T14:15:59;6.85;;;6.10;;
84474;SDS011;74699;43.068;0.152;2024-02-04T14:18:25;7.10;;;6.40;;
84474;SDS011;74699;43.068;0.152;2024-02-04T14:23:17;8.45;;;6.90;;
84474;SDS011;74699;43.068;0.152;2024-02-04T14:28:11;7.53;;;6.72;;
84474;SDS011;74699;43.068;0.152;2024-02-04T14:30:37;7.55;;;6.75;;
84474;SDS011;74699;43.068;0.152;2024-02-04T14:35:29;7.43;;;6.63;;
84474;SDS011;74699;43.068;0.152;2024-02-04T14:40:21;7.72;;;6.28;;
84474;SDS011;74699;43.068;0.152;2024-02-04T14:45:13;7.93;;;6.40;;
84474;SDS011;74699;43.068;0.152;2024-02-04T14:50:05;8.15;;;7.35;;
84474;SDS011;74699;43.068;0.152;2024-02-04T14:52:31;8.35;;;7.43;;
84474;SDS011;74699;43.068;0.152;2024-02-04T14:54:57;8.13;;;7.25;;
84474;SDS011;74699;43.068;0.152;2024-02-04T14:57:23;7.63;;;6.93;;
84474;SDS011;74699;43.068;0.152;2024-02-04T14:59:49;7.95;;;7.15;;
84474;SDS011;74699;43.068;0.152;2024-02-04T15:02:15;9.63;;;7.80;;
84474;SDS011;74699;43.068;0.152;2024-02-04T15:04:41;8.05;;;6.95;;
84474;SDS011;74699;43.068;0.152;2024-02-04T15:07:07;8.57;;;7.72;;
84474;SDS011;74699;43.068;0.152;2024-02-04T15:09:34;8.63;;;7.80;;
84474;SDS011;74699;43.068;0.152;2024-02-04T15:12:00;8.80;;;7.95;;
84474;SDS011;74699;43.068;0.152;2024-02-04T15:16:53;8.20;;;7.40;;
84474;SDS011;74699;43.068;0.152;2024-02-04T15:19:24;8.73;;;7.82;;
84474;SDS011;74699;43.068;0.152;2024-02-04T15:21:53;9.82;;;8.88;;
84474;SDS011;74699;43.068;0.152;2024-02-04T15:24:19;9.07;;;8.07;;
84474;SDS011;74699;43.068;0.152;2024-02-04T15:26:45;9.45;;;8.32;;
84474;SDS011;74699;43.068;0.152;2024-02-04T15:29:13;10.02;;;9.10;;
84474;SDS011;74699;43.068;0.152;2024-02-04T15:31:45;10.38;;;9.38;;